Ana Sayfa
METAR-TAF:

METAR-TAF

Havaalanları :

Nalçik, Rusya

Nalçik Havalimanı

Enlem: 43-30-46N, Boylam: 043-38-12E, yükseklik: 445 m

Güncel hava durumu gözlemi

Rapor saat 14:00 UTC de 38 dakika önce yapıldı.
Rüzgar doğudan 4 kt
Sıcaklık 2°C
Nem 93%
Basınç 1011 hPa
Görüş mesafesi 10 km veya daha fazla
700 ft yükseklikte çok bulutlu

METAR: URMN 231400Z 10002MPS 9999 OVC007 02/01 Q1011 R24/110060 NOSIG RMK MT OBSC QFE722

Saat: 17:38 (14:38 UTC)

Tahmin

Rapor saat 14:00 UTC de 38 dakika önce yapıldı.
Ayın 23'si saat 15 UTC'den ayın 23'si saat 24 UTC'ye kadar geçerli Tahmin
Rüzgar batı/güneybatıdan 6 kt
Görüş mesafesi: 3000 m
1000 ft yükseklikte çok bulutlu
Pus
Geçici
ayın 23'si saat 18 UTC'den ayın 23'si saat 24 UTC'ye kadar
Görüş mesafesi: 0400 m
200 ft yükseklikte çok bulutlu
sis

TAF: URMN 231400Z 2315/2324 24003MPS 3000 BR OVC010 TEMPO 2318/2324 0400 FG OVC002

4.000'den fazla havaalanı için hava durumu gözlemleri ve tahminleri (METAR ve TAF raporları).

Kullanılabilir istasyonlar harita üzerinde sarı ve kırmızı noktalarla gösterilir.

İstasyonun adını görmek için fareyi noktanın üzerinde gezdirin.

Sonrasında hava gözlem ve tahminlerini görmek için tıklayın.

Haritayı değiştirmek için: yaklaştırmak için siyah artı işaretli yeşil düğmeye ve uzaklaştırmak için de eksi işaretli düğmeye hızla tıklayın; bitişik haritalar için yeşil okları kullanın.


METAR-TAF: